createdAt,value
2018-04-02T00:00:36.617Z,99118
2018-04-02T00:02:39.809Z,99114
2018-04-02T00:04:42.998Z,99115
2018-04-02T00:06:47.666Z,99116
2018-04-02T00:08:50.825Z,99106
2018-04-02T00:10:54.026Z,99110
2018-04-02T00:12:57.197Z,99112
2018-04-02T00:15:01.480Z,99116
2018-04-02T00:17:05.467Z,99112
2018-04-02T00:19:08.618Z,99107
2018-04-02T00:21:11.760Z,99103
2018-04-02T00:23:15.281Z,99106
2018-04-02T00:25:18.434Z,99094
2018-04-02T00:27:22.802Z,99105
2018-04-02T00:29:26.752Z,99108
2018-04-02T00:31:29.908Z,99101
2018-04-02T00:33:34.598Z,99099
2018-04-02T00:35:37.753Z,99107
2018-04-02T00:37:42.053Z,99106
2018-04-02T00:39:45.222Z,99103
2018-04-02T00:41:49.169Z,99101
2018-04-02T00:43:52.324Z,99109
2018-04-02T00:45:55.499Z,99104
2018-04-02T00:47:58.673Z,99108
2018-04-02T00:50:02.633Z,99108
2018-04-02T00:52:05.806Z,99104
2018-04-02T00:54:09.750Z,99101
2018-04-02T00:56:12.896Z,99096
2018-04-02T00:58:16.079Z,99096
2018-04-02T01:00:19.237Z,99092
2018-04-02T01:02:22.907Z,99086
2018-04-02T01:04:26.094Z,99080
2018-04-02T01:06:30.017Z,99090
2018-04-02T01:08:33.958Z,99083
2018-04-02T01:10:37.105Z,99086
2018-04-02T01:12:40.293Z,99088
2018-04-02T01:14:43.581Z,99083
2018-04-02T01:16:46.728Z,99077
2018-04-02T01:18:49.876Z,99077
2018-04-02T01:20:53.825Z,99079
2018-04-02T01:22:56.977Z,99082
2018-04-02T01:25:00.159Z,99084
2018-04-02T01:27:03.770Z,99079
2018-04-02T01:29:06.968Z,99079
2018-04-02T01:31:10.144Z,99079
2018-04-02T01:33:13.288Z,99073
2018-04-02T01:35:16.488Z,99076
2018-04-02T01:37:19.639Z,99076
2018-04-02T01:39:24.834Z,99068
2018-04-02T01:41:28.106Z,99075
2018-04-02T01:43:31.269Z,99074
2018-04-02T01:45:34.469Z,99059
2018-04-02T01:47:38.427Z,99062
2018-04-02T01:49:41.591Z,99066
2018-04-02T01:51:46.910Z,99061
2018-04-02T01:53:51.976Z,99057
2018-04-02T01:55:56.476Z,99060
2018-04-02T01:58:00.923Z,99054
2018-04-02T02:00:07.939Z,99056
2018-04-02T02:02:11.992Z,99047
2018-04-02T02:04:15.909Z,99059
2018-04-02T02:06:19.109Z,99050
2018-04-02T02:08:22.273Z,99041
2018-04-02T02:10:25.410Z,99040
2018-04-02T02:12:28.581Z,99043
2018-04-02T02:14:31.757Z,99041
2018-04-02T02:16:35.876Z,99037
2018-04-02T02:18:39.047Z,99038
2018-04-02T02:20:42.188Z,99044
2018-04-02T02:22:45.368Z,99037
2018-04-02T02:24:48.516Z,99037
2018-04-02T02:26:51.709Z,99030
2018-04-02T02:28:54.905Z,99031
2018-04-02T02:30:58.085Z,99034
2018-04-02T02:33:01.260Z,99030
2018-04-02T02:35:06.354Z,99028
2018-04-02T02:37:09.520Z,99028
2018-04-02T02:39:13.473Z,99021
2018-04-02T02:41:16.653Z,99028
2018-04-02T02:43:20.896Z,99020
2018-04-02T02:45:24.068Z,99026
2018-04-02T02:47:27.265Z,99024
2018-04-02T02:49:30.412Z,99021
2018-04-02T02:51:34.329Z,99021
2018-04-02T02:53:38.268Z,99014
2018-04-02T02:55:42.200Z,99013
2018-04-02T02:57:46.387Z,99011
2018-04-02T02:59:49.545Z,99014
2018-04-02T03:01:52.703Z,99020
2018-04-02T03:03:55.888Z,99013
2018-04-02T03:05:59.058Z,99010
2018-04-02T03:08:02.213Z,99009
2018-04-02T03:10:06.825Z,99007
2018-04-02T03:12:09.985Z,99009
2018-04-02T03:14:13.140Z,99012
2018-04-02T03:16:16.320Z,99008
2018-04-02T03:18:20.252Z,99008
2018-04-02T03:20:24.199Z,99021
2018-04-02T03:22:27.346Z,99006
2018-04-02T03:24:30.520Z,99001
2018-04-02T03:26:34.161Z,99000
2018-04-02T03:28:37.317Z,98994
2018-04-02T03:30:41.270Z,98993
2018-04-02T03:32:45.329Z,98992
2018-04-02T03:34:48.520Z,98978
2018-04-02T03:36:51.660Z,98981
2018-04-02T03:38:55.568Z,98978
2018-04-02T03:40:58.772Z,98984
2018-04-02T03:43:01.930Z,98985
2018-04-02T03:45:05.850Z,98996
2018-04-02T03:47:09.792Z,98992
2018-04-02T03:49:15.008Z,98984
2018-04-02T03:51:19.097Z,98977
2018-04-02T03:53:22.270Z,98981
2018-04-02T03:55:26.186Z,98980
2018-04-02T03:57:30.153Z,98975
2018-04-02T03:59:33.296Z,98974
2018-04-02T04:01:36.485Z,98968
2018-04-02T04:03:39.672Z,98964
2018-04-02T04:05:42.838Z,98969
2018-04-02T04:07:47.127Z,98966
2018-04-02T04:09:53.268Z,98965
2018-04-02T04:11:56.557Z,98975
2018-04-02T04:14:00.505Z,98969
2018-04-02T04:16:05.281Z,98976
2018-04-02T04:18:11.011Z,98962
2018-04-02T04:20:15.214Z,98968
2018-04-02T04:22:19.897Z,98963
2018-04-02T04:24:24.558Z,98948
2018-04-02T04:26:31.252Z,98960
2018-04-02T04:28:36.395Z,98949
2018-04-02T04:30:41.081Z,98957
2018-04-02T04:32:46.434Z,98958
2018-04-02T04:34:51.080Z,98964
2018-04-02T04:36:55.649Z,98962
2018-04-02T04:39:01.638Z,98958
2018-04-02T04:41:06.905Z,98959
2018-04-02T04:43:11.012Z,98962
2018-04-02T04:45:14.472Z,98963
2018-04-02T04:47:18.812Z,98963
2018-04-02T04:49:23.123Z,98959
2018-04-02T04:51:27.061Z,98957
2018-04-02T04:53:30.998Z,98954
2018-04-02T04:55:35.822Z,98952
2018-04-02T04:57:39.672Z,98956
2018-04-02T04:59:45.648Z,98956
2018-04-02T05:01:53.167Z,98951
2018-04-02T05:03:59.021Z,98946
2018-04-02T05:06:03.082Z,98952
2018-04-02T05:08:07.576Z,98956
2018-04-02T05:10:11.495Z,98940
2018-04-02T05:12:15.162Z,98958
2018-04-02T05:14:21.305Z,98946
2018-04-02T05:16:25.353Z,98944
2018-04-02T05:18:29.974Z,98945
2018-04-02T05:20:33.255Z,98934
2018-04-02T05:22:36.425Z,98943
2018-04-02T05:24:40.381Z,98935
2018-04-02T05:26:43.526Z,98938
2018-04-02T05:28:47.437Z,98940
2018-04-02T05:30:51.740Z,98939
2018-04-02T05:32:55.252Z,98941
2018-04-02T05:34:58.410Z,98932
2018-04-02T05:37:01.619Z,98944
2018-04-02T05:39:04.772Z,98940
2018-04-02T05:41:07.925Z,98935
2018-04-02T05:43:11.115Z,98934
2018-04-02T05:45:14.263Z,98940
2018-04-02T05:47:17.451Z,98935
2018-04-02T05:49:20.622Z,98936
2018-04-02T05:51:23.774Z,98930
2018-04-02T05:53:26.958Z,98934
2018-04-02T05:55:31.273Z,98930
2018-04-02T05:57:34.677Z,98927
2018-04-02T05:59:37.835Z,98925
2018-04-02T06:01:40.976Z,98919
2018-04-02T06:03:44.917Z,98926
2018-04-02T06:05:48.069Z,98923
2018-04-02T06:07:51.639Z,98928
2018-04-02T06:09:56.056Z,98922
2018-04-02T06:12:00.237Z,98919
2018-04-02T06:14:04.239Z,98929
2018-04-02T06:16:08.689Z,98911
2018-04-02T06:18:13.415Z,98916
2018-04-02T06:20:16.596Z,98921
2018-04-02T06:22:20.567Z,98909
2018-04-02T06:24:24.487Z,98910
2018-04-02T06:26:27.705Z,98905
2018-04-02T06:28:32.004Z,98899
2018-04-02T06:30:35.918Z,98912
2018-04-02T06:32:39.866Z,98900
2018-04-02T06:34:43.713Z,98904
2018-04-02T06:36:46.856Z,98904
2018-04-02T06:38:50.058Z,98901
2018-04-02T06:40:54.068Z,98897
2018-04-02T06:42:58.284Z,98887
2018-04-02T06:45:01.481Z,98893
2018-04-02T06:47:04.666Z,98896
2018-04-02T06:49:08.856Z,98897
2018-04-02T06:51:12.039Z,98894
2018-04-02T06:53:15.324Z,98884
2018-04-02T06:55:18.511Z,98887
2018-04-02T06:57:22.512Z,98883
2018-04-02T06:59:25.726Z,98887
2018-04-02T07:01:28.891Z,98890
2018-04-02T07:03:32.113Z,98885
2018-04-02T07:05:35.833Z,98882
2018-04-02T07:07:39.009Z,98877
2018-04-02T07:09:43.945Z,98878
2018-04-02T07:11:47.903Z,98875
2018-04-02T07:13:51.089Z,98878
2018-04-02T07:15:55.824Z,98873
2018-04-02T07:17:59.040Z,98874
2018-04-02T07:20:02.981Z,98874
2018-04-02T07:22:06.166Z,98877
2018-04-02T07:24:10.424Z,98876
2018-04-02T07:26:13.614Z,98869
2018-04-02T07:28:17.642Z,98866
2018-04-02T07:30:21.578Z,98862
2018-04-02T07:32:24.813Z,98877
2018-04-02T07:34:27.985Z,98859
2018-04-02T07:36:32.883Z,98858
2018-04-02T07:38:36.077Z,98854
2018-04-02T07:40:39.262Z,98857
2018-04-02T07:42:42.461Z,98849
2018-04-02T07:44:46.410Z,98835
2018-04-02T07:46:49.657Z,98833
2018-04-02T07:48:52.866Z,98841
2018-04-02T07:50:56.329Z,98840
2018-04-02T07:52:59.514Z,98835
2018-04-02T07:55:03.488Z,98845
2018-04-02T07:57:06.688Z,98842
2018-04-02T07:59:09.908Z,98841
2018-04-02T08:01:13.080Z,98845
2018-04-02T08:03:16.437Z,98840
2018-04-02T08:05:20.559Z,98839
2018-04-02T08:07:23.740Z,98835
2018-04-02T08:09:26.915Z,98835
2018-04-02T08:11:30.680Z,98841
2018-04-02T08:13:33.851Z,98838
2018-04-02T08:15:37.787Z,98830
2018-04-02T08:17:43.130Z,98830
2018-04-02T08:19:48.401Z,98840
2018-04-02T08:21:54.054Z,98829
2018-04-02T08:23:59.531Z,98826
2018-04-02T08:26:04.065Z,98832
2018-04-02T08:28:08.455Z,98824
2018-04-02T08:30:13.501Z,98822
2018-04-02T08:32:18.623Z,98817
2018-04-02T08:34:21.948Z,98823
2018-04-02T08:36:25.136Z,98817
2018-04-02T08:38:28.316Z,98813
2018-04-02T08:40:32.413Z,98807
2018-04-02T08:42:35.877Z,98802
2018-04-02T08:44:40.113Z,98807
2018-04-02T08:46:43.398Z,98808
2018-04-02T08:48:46.594Z,98808
2018-04-02T08:50:49.772Z,98817
2018-04-02T08:52:53.030Z,98803
2018-04-02T08:54:56.254Z,98802
2018-04-02T08:57:00.209Z,98794
2018-04-02T08:59:03.458Z,98803
2018-04-02T09:01:06.658Z,98795
2018-04-02T09:03:09.905Z,98799
2018-04-02T09:05:13.196Z,98792
2018-04-02T09:07:16.472Z,98799
2018-04-02T09:09:19.768Z,98797
2018-04-02T09:11:22.953Z,98791
2018-04-02T09:13:27.240Z,98786
2018-04-02T09:15:30.489Z,98792
2018-04-02T09:17:34.447Z,98793
2018-04-02T09:19:37.639Z,98773
2018-04-02T09:21:41.368Z,98770
2018-04-02T09:23:44.761Z,98765
2018-04-02T09:25:48.915Z,98778
2018-04-02T09:27:52.100Z,98761
2018-04-02T09:29:57.968Z,98764
2018-04-02T09:32:01.186Z,98765
2018-04-02T09:34:04.411Z,98768
2018-04-02T09:36:07.604Z,98758
2018-04-02T09:38:10.821Z,98758
2018-04-02T09:40:14.010Z,98759
2018-04-02T09:42:17.954Z,98750
2018-04-02T09:44:21.137Z,98751
2018-04-02T09:46:25.090Z,98748
2018-04-02T09:48:28.296Z,98748
2018-04-02T09:50:31.489Z,98750
2018-04-02T09:52:35.478Z,98742
2018-04-02T09:54:38.711Z,98736
2018-04-02T09:56:41.892Z,98733
2018-04-02T09:58:45.351Z,98734
2018-04-02T10:00:48.582Z,98724
2018-04-02T10:02:51.767Z,98720
2018-04-02T10:04:56.571Z,98718
2018-04-02T10:06:59.690Z,98719
2018-04-02T10:09:04.017Z,98718
2018-04-02T10:11:07.265Z,98704
2018-04-02T10:13:11.203Z,98697
2018-04-02T10:15:14.390Z,98696
2018-04-02T10:17:18.339Z,98697
2018-04-02T10:19:21.533Z,98692
2018-04-02T10:21:25.476Z,98686
2018-04-02T10:23:28.989Z,98686
2018-04-02T10:25:32.165Z,98684
2018-04-02T10:27:35.361Z,98674
2018-04-02T10:29:38.588Z,98673
2018-04-02T10:31:41.747Z,98668
2018-04-02T10:33:46.046Z,98670
2018-04-02T10:35:50.006Z,98657
2018-04-02T10:37:53.225Z,98658
2018-04-02T10:39:56.464Z,98658
2018-04-02T10:42:01.174Z,98650
2018-04-02T10:44:04.567Z,98643
2018-04-02T10:46:09.079Z,98635
2018-04-02T10:48:13.026Z,98638
2018-04-02T10:50:16.243Z,98643
2018-04-02T10:52:19.433Z,98638
2018-04-02T10:54:25.789Z,98632
2018-04-02T10:56:28.965Z,98630
2018-04-02T10:58:32.165Z,98620
2018-04-02T11:00:35.359Z,98621
2018-04-02T11:02:38.555Z,98616
2018-04-02T11:04:41.783Z,98610
2018-04-02T11:06:46.594Z,98624
2018-04-02T11:08:50.569Z,98609
2018-04-02T11:10:53.753Z,98601
2018-04-02T11:12:56.937Z,98600
2018-04-02T11:15:00.875Z,98596
2018-04-02T11:17:04.073Z,98594
2018-04-02T11:19:09.129Z,98586
2018-04-02T11:21:13.151Z,98580
2018-04-02T11:23:17.094Z,98568
2018-04-02T11:25:20.410Z,98565
2018-04-02T11:27:23.594Z,98558
2018-04-02T11:29:27.535Z,98561
2018-04-02T11:31:30.723Z,98563
2018-04-02T11:33:34.690Z,98560
2018-04-02T11:35:37.864Z,98566
2018-04-02T11:37:41.813Z,98552
2018-04-02T11:39:44.989Z,98552
2018-04-02T11:41:48.936Z,98552
2018-04-02T11:43:52.120Z,98551
2018-04-02T11:45:56.060Z,98546
2018-04-02T11:48:00.029Z,98550
2018-04-02T11:50:03.204Z,98547
2018-04-02T11:52:06.516Z,98542
2018-04-02T11:54:09.713Z,98545
2018-04-02T11:56:14.783Z,98540
2018-04-02T11:58:17.956Z,98534
2018-04-02T12:00:21.150Z,98538
2018-04-02T12:02:24.335Z,98517
2018-04-02T12:04:27.509Z,98511
2018-04-02T12:06:30.690Z,98520
2018-04-02T12:08:34.561Z,98526
2018-04-02T12:10:38.068Z,98522
2018-04-02T12:12:41.246Z,98506
2018-04-02T12:14:45.215Z,98504
2018-04-02T12:16:48.410Z,98502
2018-04-02T12:18:51.598Z,98493
2018-04-02T12:20:55.540Z,98499
2018-04-02T12:22:58.727Z,98498
2018-04-02T12:25:02.679Z,98491
2018-04-02T12:27:05.855Z,98492
2018-04-02T12:29:09.800Z,98480
2018-04-02T12:31:12.972Z,98474
2018-04-02T12:33:16.935Z,98456
2018-04-02T12:35:20.144Z,98459
2018-04-02T12:37:23.357Z,98452
2018-04-02T12:39:26.757Z,98450
2018-04-02T12:41:30.697Z,98454
2018-04-02T12:43:33.900Z,98460
2018-04-02T12:45:37.083Z,98455
2018-04-02T12:47:40.511Z,98448
2018-04-02T12:49:43.976Z,98467
2018-04-02T12:51:47.273Z,98463
2018-04-02T12:53:50.477Z,98446
2018-04-02T12:55:53.674Z,98456
2018-04-02T12:57:56.852Z,98436
2018-04-02T13:00:00.813Z,98452
2018-04-02T13:02:04.013Z,98453
2018-04-02T13:04:07.310Z,98448
2018-04-02T13:06:12.216Z,98458
2018-04-02T13:08:16.342Z,98448
2018-04-02T13:10:20.061Z,98446
2018-04-02T13:12:25.828Z,98439
2018-04-02T13:14:29.957Z,98428
2018-04-02T13:16:33.140Z,98425
2018-04-02T13:18:36.328Z,98428
2018-04-02T13:20:40.350Z,98422
2018-04-02T13:22:44.596Z,98422
2018-04-02T13:24:48.697Z,98414
2018-04-02T13:26:51.949Z,98414
2018-04-02T13:28:57.045Z,98413
2018-04-02T13:31:00.222Z,98415
2018-04-02T13:33:03.714Z,98412
2018-04-02T13:35:06.914Z,98416
2018-04-02T13:37:10.128Z,98417
2018-04-02T13:39:13.313Z,98405
2018-04-02T13:41:16.888Z,98419
2018-04-02T13:43:20.070Z,98410
2018-04-02T13:45:23.248Z,98406
2018-04-02T13:47:27.545Z,98414
2018-04-02T13:49:31.302Z,98408
2018-04-02T13:51:35.247Z,98394
2018-04-02T13:53:39.193Z,98389
2018-04-02T13:55:42.375Z,98390
2018-04-02T13:57:46.324Z,98390
2018-04-02T13:59:49.504Z,98377
2018-04-02T14:01:53.466Z,98366
2018-04-02T14:03:58.329Z,98368
2018-04-02T14:06:01.522Z,98365
2018-04-02T14:08:04.701Z,98367
2018-04-02T14:10:08.645Z,98353
2018-04-02T14:12:11.817Z,98349
2018-04-02T14:14:15.769Z,98350
2018-04-02T14:16:18.947Z,98341
2018-04-02T14:18:22.140Z,98343
2018-04-02T14:20:25.304Z,98338
2018-04-02T14:22:28.494Z,98340
2018-04-02T14:24:32.444Z,98335
2018-04-02T14:26:35.943Z,98331
2018-04-02T14:28:39.116Z,98332
2018-04-02T14:30:42.305Z,98334
2018-04-02T14:32:45.481Z,98319
2018-04-02T14:34:48.669Z,98321
2018-04-02T14:36:52.637Z,98322
2018-04-02T14:38:55.814Z,98320
2018-04-02T14:40:58.998Z,98318
2018-04-02T14:43:02.949Z,98302
2018-04-02T14:45:06.129Z,98298
2018-04-02T14:47:09.304Z,98290
2018-04-02T14:49:12.484Z,98290
2018-04-02T14:51:15.664Z,98284
2018-04-02T14:53:19.744Z,98274
2018-04-02T14:55:22.940Z,98281
2018-04-02T14:57:26.112Z,98272
2018-04-02T14:59:30.065Z,98273
2018-04-02T15:01:33.254Z,98267
2018-04-02T15:03:37.276Z,98262
2018-04-02T15:05:41.464Z,98257
2018-04-02T15:07:44.682Z,98260
2018-04-02T15:09:47.872Z,98253
2018-04-02T15:11:51.061Z,98252
2018-04-02T15:13:54.267Z,98251
2018-04-02T15:15:57.443Z,98241
2018-04-02T15:18:01.427Z,98252
2018-04-02T15:20:04.630Z,98243
2018-04-02T15:22:07.832Z,98242
2018-04-02T15:24:11.134Z,98236
2018-04-02T15:26:14.646Z,98229
2018-04-02T15:28:18.059Z,98222
2018-04-02T15:30:22.633Z,98227
2018-04-02T15:32:26.087Z,98212
2018-04-02T15:34:29.446Z,98214
2018-04-02T15:36:32.695Z,98217
2018-04-02T15:38:36.653Z,98207
2018-04-02T15:40:39.824Z,98199
2018-04-02T15:42:43.009Z,98196
2018-04-02T15:44:46.190Z,98194
2018-04-02T15:46:49.389Z,98188
2018-04-02T15:48:52.574Z,98185
2018-04-02T15:50:56.539Z,98173
2018-04-02T15:52:59.737Z,98171
2018-04-02T15:55:02.924Z,98171
2018-04-02T15:57:06.876Z,98171
2018-04-02T15:59:10.097Z,98165
2018-04-02T16:01:13.286Z,98173
2018-04-02T16:03:16.488Z,98162
2018-04-02T16:05:19.664Z,98171
2018-04-02T16:07:23.608Z,98154
2018-04-02T16:09:27.578Z,98157
2018-04-02T16:11:30.784Z,98156
2018-04-02T16:13:33.954Z,98162
2018-04-02T16:15:37.924Z,98154
2018-04-02T16:17:42.202Z,98144
2018-04-02T16:19:45.466Z,98138
2018-04-02T16:21:48.645Z,98136
2018-04-02T16:23:51.851Z,98121
2018-04-02T16:25:55.046Z,98109
2018-04-02T16:27:58.984Z,98101
2018-04-02T16:30:04.088Z,98102
2018-04-02T16:32:07.264Z,98109
2018-04-02T16:34:10.436Z,98110
2018-04-02T16:36:14.406Z,98109
2018-04-02T16:38:17.581Z,98108
2018-04-02T16:40:21.527Z,98106
2018-04-02T16:42:25.155Z,98101
2018-04-02T16:44:28.444Z,98107
2018-04-02T16:46:31.641Z,98100
2018-04-02T16:48:35.779Z,98098
2018-04-02T16:50:38.967Z,98107
2018-04-02T16:52:44.046Z,98103
2018-04-02T16:54:47.221Z,98106
2018-04-02T16:56:50.407Z,98106
2018-04-02T16:58:53.603Z,98098
2018-04-02T17:00:57.542Z,98087
2018-04-02T17:03:00.730Z,98095
2018-04-02T17:05:04.572Z,98095
2018-04-02T17:07:07.774Z,98093
2018-04-02T17:09:10.953Z,98088
2018-04-02T17:11:14.125Z,98089
2018-04-02T17:13:18.076Z,98093
2018-04-02T17:15:21.249Z,98082
2018-04-02T17:17:25.403Z,98085
2018-04-02T17:19:28.718Z,98077
2018-04-02T17:21:32.844Z,98083
2018-04-02T17:23:36.063Z,98085
2018-04-02T17:25:39.248Z,98081
2018-04-02T17:27:43.289Z,98080
2018-04-02T17:29:47.893Z,98079
2018-04-02T17:31:51.255Z,98077
2018-04-02T17:33:54.485Z,98076
2018-04-02T17:35:57.658Z,98081
2018-04-02T17:38:02.045Z,98073
2018-04-02T17:40:05.530Z,98087
2018-04-02T17:42:08.919Z,98081
2018-04-02T17:44:12.911Z,98073
2018-04-02T17:46:16.089Z,98068
2018-04-02T17:48:19.274Z,98071
2018-04-02T17:50:23.500Z,98073
2018-04-02T17:52:26.797Z,98085
2018-04-02T17:54:29.980Z,98085
2018-04-02T17:56:33.432Z,98084
2018-04-02T17:58:36.785Z,98083
2018-04-02T18:00:39.956Z,98076
2018-04-02T18:02:43.904Z,98081
2018-04-02T18:04:48.217Z,98081
2018-04-02T18:06:52.164Z,98098
2018-04-02T18:08:55.504Z,98079
2018-04-02T18:10:58.704Z,98092
2018-04-02T18:13:01.884Z,98081
2018-04-02T18:15:05.521Z,98082
2018-04-02T18:17:09.529Z,98087
2018-04-02T18:19:12.701Z,98076
2018-04-02T18:21:15.884Z,98079
2018-04-02T18:23:19.084Z,98079
2018-04-02T18:25:22.268Z,98084
2018-04-02T18:27:25.483Z,98082
2018-04-02T18:29:29.128Z,98087
2018-04-02T18:31:32.304Z,98080
2018-04-02T18:33:35.476Z,98081
2018-04-02T18:35:39.416Z,98063
2018-04-02T18:37:43.348Z,98063
2018-04-02T18:39:47.285Z,98062
2018-04-02T18:41:50.477Z,98067
2018-04-02T18:43:56.423Z,98071
2018-04-02T18:45:59.985Z,98070
2018-04-02T18:48:03.172Z,98078
2018-04-02T18:50:07.127Z,98072
2018-04-02T18:52:10.317Z,98074
2018-04-02T18:54:13.505Z,98074
2018-04-02T18:56:16.689Z,98070
2018-04-02T18:58:19.885Z,98059
2018-04-02T19:00:23.068Z,98056
2018-04-02T19:02:26.265Z,98056
2018-04-02T19:04:30.125Z,98056
2018-04-02T19:06:33.316Z,98081
2018-04-02T19:08:36.491Z,98075
2018-04-02T19:10:39.700Z,98070
2018-04-02T19:12:43.672Z,98085
2018-04-02T19:14:46.856Z,98086
2018-04-02T19:16:50.544Z,98087
2018-04-02T19:18:53.717Z,98088
2018-04-02T19:20:56.994Z,98082
2018-04-02T19:23:00.186Z,98087
2018-04-02T19:25:04.133Z,98088
2018-04-02T19:27:07.341Z,98082
2018-04-02T19:29:10.891Z,98075
2018-04-02T19:31:14.065Z,98070
2018-04-02T19:33:17.250Z,98059
2018-04-02T19:35:21.193Z,98070
2018-04-02T19:37:25.352Z,98070
2018-04-02T19:39:30.099Z,98077
2018-04-02T19:41:34.208Z,98080
2018-04-02T19:43:38.630Z,98079
2018-04-02T19:45:42.037Z,98100
2018-04-02T19:47:46.021Z,98090
2018-04-02T19:49:49.237Z,98087
2018-04-02T19:51:53.204Z,98081
2018-04-02T19:53:56.380Z,98081
2018-04-02T19:55:59.581Z,98075
2018-04-02T19:58:02.763Z,98059
2018-04-02T20:00:06.151Z,98065
2018-04-02T20:02:09.330Z,98068
2018-04-02T20:04:13.280Z,98060
2018-04-02T20:06:16.464Z,98052
2018-04-02T20:08:20.421Z,98063
2018-04-02T20:10:23.595Z,98059
2018-04-02T20:12:26.772Z,98052
2018-04-02T20:14:29.965Z,98051
2018-04-02T20:16:33.132Z,98055
2018-04-02T20:18:37.048Z,98051
2018-04-02T20:20:41.305Z,98055
2018-04-02T20:22:45.970Z,98052
2018-04-02T20:24:50.067Z,98041
2018-04-02T20:26:53.972Z,98044
2018-04-02T20:28:57.125Z,98045
2018-04-02T20:31:00.311Z,98040
2018-04-02T20:33:03.457Z,98041
2018-04-02T20:35:06.653Z,98039
2018-04-02T20:37:10.053Z,98036
2018-04-02T20:39:13.935Z,98039
2018-04-02T20:41:17.107Z,98033
2018-04-02T20:43:20.285Z,98033
2018-04-02T20:45:23.459Z,98049
2018-04-02T20:47:26.652Z,98040
2018-04-02T20:49:29.849Z,98036
2018-04-02T20:51:33.160Z,98028
2018-04-02T20:53:36.337Z,98031
2018-04-02T20:55:39.493Z,98037
2018-04-02T20:57:42.664Z,98039
2018-04-02T20:59:45.819Z,98045
2018-04-02T21:01:49.005Z,98045
2018-04-02T21:03:53.279Z,98037
2018-04-02T21:05:57.239Z,98034
2018-04-02T21:08:00.633Z,98044
2018-04-02T21:10:03.840Z,98031
2018-04-02T21:12:07.012Z,98033
2018-04-02T21:14:10.198Z,98031
2018-04-02T21:16:13.894Z,98037
2018-04-02T21:18:17.053Z,98025
2018-04-02T21:20:20.227Z,98035
2018-04-02T21:22:23.947Z,98015
2018-04-02T21:24:27.288Z,98025
2018-04-02T21:26:30.443Z,98028
2018-04-02T21:28:34.190Z,98022
2018-04-02T21:30:37.881Z,98029
2018-04-02T21:32:41.025Z,98029
2018-04-02T21:34:44.186Z,98014
2018-04-02T21:36:48.129Z,98021
2018-04-02T21:38:51.398Z,98015
2018-04-02T21:40:55.356Z,98006
2018-04-02T21:42:58.534Z,98021
2018-04-02T21:45:01.684Z,98013
2018-04-02T21:47:04.856Z,98016
2018-04-02T21:49:08.792Z,98015
2018-04-02T21:51:12.818Z,98012
2018-04-02T21:53:16.729Z,98026
2018-04-02T21:55:19.904Z,98017
2018-04-02T21:57:23.090Z,98029
2018-04-02T21:59:26.244Z,98022
2018-04-02T22:01:29.424Z,98030
2018-04-02T22:03:32.658Z,98025
2018-04-02T22:05:35.833Z,98024
2018-04-02T22:07:38.976Z,98018
2018-04-02T22:09:43.629Z,98034
2018-04-02T22:11:47.071Z,98035
2018-04-02T22:13:50.216Z,98029
2018-04-02T22:15:53.392Z,98035
2018-04-02T22:17:56.569Z,98028
2018-04-02T22:20:00.481Z,98037
2018-04-02T22:22:04.408Z,98026
2018-04-02T22:24:07.606Z,98033
2018-04-02T22:26:10.777Z,98023
2018-04-02T22:28:13.956Z,98023
2018-04-02T22:30:17.908Z,98016
2018-04-02T22:32:21.068Z,98007
2018-04-02T22:34:24.989Z,98005
2018-04-02T22:36:28.169Z,98000
2018-04-02T22:38:31.317Z,98002
2018-04-02T22:40:34.860Z,97990
2018-04-02T22:42:38.016Z,97990
2018-04-02T22:44:41.162Z,97994
2018-04-02T22:46:45.112Z,97987
2018-04-02T22:48:48.296Z,97998
2018-04-02T22:50:52.208Z,97988
2018-04-02T22:52:57.272Z,97997
2018-04-02T22:55:01.218Z,97995
2018-04-02T22:57:04.358Z,97997
2018-04-02T22:59:07.539Z,97994
2018-04-02T23:01:10.713Z,98007
2018-04-02T23:03:13.862Z,98009
2018-04-02T23:05:17.358Z,98010
2018-04-02T23:07:20.526Z,98013
2018-04-02T23:09:24.447Z,98009
2018-04-02T23:11:27.625Z,98011
2018-04-02T23:13:30.811Z,98016
2018-04-02T23:15:33.982Z,98021
2018-04-02T23:17:37.264Z,98024
2018-04-02T23:19:40.409Z,98024
2018-04-02T23:21:43.557Z,98027
2018-04-02T23:23:46.735Z,98033
2018-04-02T23:25:50.651Z,98024
2018-04-02T23:27:54.586Z,98033
2018-04-02T23:29:58.536Z,98030
2018-04-02T23:32:01.709Z,98037
2018-04-02T23:34:04.880Z,98041
2018-04-02T23:36:08.068Z,98043
2018-04-02T23:38:11.212Z,98039
2018-04-02T23:40:14.365Z,98037
2018-04-02T23:42:18.025Z,98046
2018-04-02T23:44:21.181Z,98047
2018-04-02T23:46:25.150Z,98042
2018-04-02T23:48:28.320Z,98040
2018-04-02T23:50:32.240Z,98030
2018-04-02T23:52:36.181Z,98044
2018-04-02T23:54:39.337Z,98041
2018-04-02T23:56:42.713Z,98048
2018-04-02T23:58:45.856Z,98041
